AirNav   ProFlight Series 2 Aviation Headset
 
 423 users online  

IS30 Franciscan St James Health - Olympia Fields Heliport
Olympia Fields, Illinois, USA

GOING TO OLYMPIA FIELDS?


FAA INFORMATION EFFECTIVE 18 JUNE 2020

Location

FAA Identifier: IS30
Lat/Long: 41-31-25.0000N 087-42-35.0000W
41-31.416667N 087-42.583333W
41.5236111,-87.7097222
(estimated)
Elevation: 718 ft. / 219 m (estimated)
Variation: 01W (1985)
Time zone: UTC -5 (UTC -6 during Standard Time)
Zip code: 60461

Heliport Operations

Heliport use: Private use, MEDICAL.
Activation date: 10/1989
Control tower: no
ARTCC: CHICAGO CENTER
FSS: KANKAKEE FLIGHT SERVICE STATION
Attendance: CONTINUOUS
Wind indicator: lighted
Segmented circle: no
Beacon: white-green-yellow (heliport)

Heliport Communications

WX AWOS-3 at IGQ (8 nm E): 119.275 (708-895-9526)
WX AWOS-AV at C56 (9 nm S): 119.125 (708-534-5256)
WX AWOS-3PT at GYY (14 nm NE): 134.575 (219-944-0010)
WX ASOS at MDW (16 nm N): PHONE 773-884-4424
WX AWOS-3 at LOT (18 nm W): 118.525 (815-588-4802)

Nearby radio navigation aids

VOR radial/distance  VOR name  Freq  Var
CGTr275/6.3CHICAGO HEIGHTS VORTAC114.2002E
EONr012/15.7PEOTONE VORTAC113.2002E
JOTr091/27.4JOLIET VOR/DME112.3002E
IKKr013/27.7KANKAKEE VOR/DME111.6000E
DPAr125/36.2DUPAGE VOR/DME108.4002E

Heliport Services

Runway Information

Helipad H1

Dimensions: 50 x 50 ft. / 15 x 15 m
Surface: concrete
Runway edge lights: PERI
HELIPORT HAS FLOOD LGTS.
Latitude: 41-31.416667N
Longitude: 087-42.583333W
Elevation: 718.0 ft.
Traffic pattern: leftleft

Heliport Ownership and Management from official FAA records

Ownership: Privately-owned
Owner: ST JAMES HOSPITAL AND HEALTH CENTER
20201 S CRAWFORD AVE
OLYMPIA, IL 60461
Phone 708-747-4000
Manager: JAMES CROSSER
20201 S CRAWFORD AVE
OLYMPIA FIELDS, IL 60461
Phone 708-747-4000
EXT 81274.

Additional Remarks

A52-H1 115 FT WATER TWR 685 FT NE;74 FT POLE 385 FT E AND 14 FT POLE 130 FT NW OF HELIPAD.
FOR CD CTC CHICAGO APCH AT 847-289-0926.

Instrument Procedures

There are no published instrument procedures at IS30.

Some nearby airports with instrument procedures:

KIGQ - Lansing Municipal Airport (8 nm E)
C56 - Bult Field Airport (9 nm S)
05C - Griffith-Merrillville Airport (14 nm E)
KGYY - Gary/Chicago International Airport (14 nm NE)
KMDW - Chicago Midway International Airport (16 nm N)
KLOT - Lewis University Airport (18 nm W)
 
Loc | Ops | Rwys | IFR | FBO | Links
Com | Nav | Svcs | Stats | Notes
Area around IS30 (Franciscan St James Health - Olympia Fields Heliport)
 
Road maps at: MapQuest Bing Google
 
Aerial photo
No photo
 
Sectional chart

 
Airport distance calculator
Flying to Franciscan St James Health - Olympia Fields Heliport? Find the distance to fly.

From to IS30

Sunrise and sunset
Times for 11-Jul-2020
 Local
(UTC-5)
 Zulu
(UTC)
Morning civil twilight04:5509:55
Sunrise05:2910:29
Sunset20:2401:24
Evening civil twilight20:5701:57

Current date and time
Zulu (UTC)  11-Jul-2020 10:39:58
Local (UTC-5)  11-Jul-2020 05:39:58
 
METAR
KIGQ 
8nm E 
111015Z AUTO 28003KT 10SM CLR 20/17 A2990 RMK AO2 T01950166
KGYY 
14nm NE 
110945Z 27005KT 10SM SKC 21/19 A2989
KMDW 
16nm N 
110953Z 29006KT 10SM FEW060 22/17 A2989 RMK AO2 SLP109 T02170167
KLOT 
18nm W 
111015Z AUTO 29005KT 10SM CLR 19/18 A2991 RMK AO2 T01850179
TAF
KGYY 
14nm NE 
110902Z 1109/1206 28007KT P6SM FEW250 FM111400 28010KT P6SM SCT045 BKN100 FM111800 01009KT P6SM SCT040 BKN080 PROB30 1123/1201 -TSRA BKN040CB FM120100 27008KT P6SM BKN040 OVC100 TEMPO 1201/1204 3SM TSRA BKN030CB
KMDW 
16nm N 
110902Z 1109/1212 29007KT P6SM FEW250 FM111500 29010KT P6SM SCT045 BKN100 FM112200 28006KT P6SM SCT040 BKN080 PROB30 1122/1124 -TSRA BKN040CB FM120100 28008KT P6SM BKN040 OVC100 TEMPO 1201/1204 3SM TSRA BKN030CB FM120800 03006KT P6SM BKN040
NOTAMs
Click for the latest NOTAMs
NOTAMs are issued by the DoD/FAA and will open in a separate window not controlled by AirNav.

 

 
 

Would you like to see your business listed on this page?

 If your business provides an interesting product or service to pilots, flight crews, aircraft, or users of the Franciscan St James Health - Olympia Fields Heliport, you should consider listing it here.  To start the listing process, click on the button below
 
Add a business
 

Other Pages about Franciscan St James Health - Olympia Fields Heliport

Update a link
 
Copyright © AirNav, LLC. All rights reserved. Privacy Policy  Contact